sensor_id;sensor_type;location;lat;lon;timestamp;temperature;humidity
47765;DHT22;33529;49.242;8.670;2024-02-15T00:02:29;10.20;99.90
47765;DHT22;33529;49.242;8.670;2024-02-15T00:04:56;10.20;99.90
47765;DHT22;33529;49.242;8.670;2024-02-15T00:07:23;10.20;99.90
47765;DHT22;33529;49.242;8.670;2024-02-15T00:09:50;10.10;99.90
47765;DHT22;33529;49.242;8.670;2024-02-15T00:12:18;10.10;99.90
47765;DHT22;33529;49.242;8.670;2024-02-15T00:14:45;10.10;99.90
47765;DHT22;33529;49.242;8.670;2024-02-15T00:17:12;10.00;99.90
47765;DHT22;33529;49.242;8.670;2024-02-15T00:19:39;10.00;99.90
47765;DHT22;33529;49.242;8.670;2024-02-15T00:22:08;10.00;99.90
47765;DHT22;33529;49.242;8.670;2024-02-15T00:24:37;10.00;99.90
47765;DHT22;33529;49.242;8.670;2024-02-15T00:27:05;9.90;99.90
47765;DHT22;33529;49.242;8.670;2024-02-15T00:29:32;9.90;99.90
47765;DHT22;33529;49.242;8.670;2024-02-15T00:32:01;9.90;99.90
47765;DHT22;33529;49.242;8.670;2024-02-15T00:34:31;10.00;99.90
47765;DHT22;33529;49.242;8.670;2024-02-15T00:36:59;9.80;99.90
47765;DHT22;33529;49.242;8.670;2024-02-15T00:39:26;9.80;99.90
47765;DHT22;33529;49.242;8.670;2024-02-15T00:41:53;9.70;99.90
47765;DHT22;33529;49.242;8.670;2024-02-15T00:44:22;9.70;99.90
47765;DHT22;33529;49.242;8.670;2024-02-15T00:46:49;9.70;99.90
47765;DHT22;33529;49.242;8.670;2024-02-15T00:49:17;9.60;99.90
47765;DHT22;33529;49.242;8.670;2024-02-15T00:51:47;9.60;99.90
47765;DHT22;33529;49.242;8.670;2024-02-15T00:54:15;9.60;99.90
47765;DHT22;33529;49.242;8.670;2024-02-15T00:56:42;9.50;99.90
47765;DHT22;33529;49.242;8.670;2024-02-15T00:59:09;9.40;99.90
47765;DHT22;33529;49.242;8.670;2024-02-15T01:01:36;9.40;99.90
47765;DHT22;33529;49.242;8.670;2024-02-15T01:04:07;9.30;99.90
47765;DHT22;33529;49.242;8.670;2024-02-15T01:06:34;9.30;99.90
47765;DHT22;33529;49.242;8.670;2024-02-15T01:09:02;9.30;99.90
47765;DHT22;33529;49.242;8.670;2024-02-15T01:11:30;9.20;99.90
47765;DHT22;33529;49.242;8.670;2024-02-15T01:14:01;9.20;99.90
47765;DHT22;33529;49.242;8.670;2024-02-15T01:16:28;9.20;99.90
47765;DHT22;33529;49.242;8.670;2024-02-15T01:18:55;9.10;99.90
47765;DHT22;33529;49.242;8.670;2024-02-15T01:21:22;9.10;99.90
47765;DHT22;33529;49.242;8.670;2024-02-15T01:23:49;9.10;99.90
47765;DHT22;33529;49.242;8.670;2024-02-15T01:26:17;9.10;99.90
47765;DHT22;33529;49.242;8.670;2024-02-15T01:28:44;9.20;99.90
47765;DHT22;33529;49.242;8.670;2024-02-15T01:31:11;9.20;99.90
47765;DHT22;33529;49.242;8.670;2024-02-15T01:33:39;9.10;99.90
47765;DHT22;33529;49.242;8.670;2024-02-15T01:36:06;9.10;99.90
47765;DHT22;33529;49.242;8.670;2024-02-15T01:38:33;9.20;99.90
47765;DHT22;33529;49.242;8.670;2024-02-15T01:41:00;9.10;99.90
47765;DHT22;33529;49.242;8.670;2024-02-15T01:43:27;9.10;99.90
47765;DHT22;33529;49.242;8.670;2024-02-15T01:45:56;9.10;99.90
47765;DHT22;33529;49.242;8.670;2024-02-15T01:48:27;9.10;99.90
47765;DHT22;33529;49.242;8.670;2024-02-15T01:50:54;9.20;99.90
47765;DHT22;33529;49.242;8.670;2024-02-15T01:53:21;9.20;99.90
47765;DHT22;33529;49.242;8.670;2024-02-15T01:55:48;9.20;99.90
47765;DHT22;33529;49.242;8.670;2024-02-15T01:58:15;9.20;99.90
47765;DHT22;33529;49.242;8.670;2024-02-15T02:00:45;9.30;99.90
47765;DHT22;33529;49.242;8.670;2024-02-15T02:03:14;9.30;99.90
47765;DHT22;33529;49.242;8.670;2024-02-15T02:05:42;9.30;99.90
47765;DHT22;33529;49.242;8.670;2024-02-15T02:08:09;9.40;99.90
47765;DHT22;33529;49.242;8.670;2024-02-15T02:10:39;9.40;99.90
47765;DHT22;33529;49.242;8.670;2024-02-15T02:13:07;9.40;99.90
47765;DHT22;33529;49.242;8.670;2024-02-15T02:15:34;9.50;99.90
47765;DHT22;33529;49.242;8.670;2024-02-15T02:18:01;9.50;99.90
47765;DHT22;33529;49.242;8.670;2024-02-15T02:20:29;9.50;99.90
47765;DHT22;33529;49.242;8.670;2024-02-15T02:23:04;9.50;99.90
47765;DHT22;33529;49.242;8.670;2024-02-15T02:25:34;9.60;99.90
47765;DHT22;33529;49.242;8.670;2024-02-15T02:28:02;9.60;99.90
47765;DHT22;33529;49.242;8.670;2024-02-15T02:30:29;9.60;99.90
47765;DHT22;33529;49.242;8.670;2024-02-15T02:32:56;9.60;99.90
47765;DHT22;33529;49.242;8.670;2024-02-15T02:35:23;9.60;99.90
47765;DHT22;33529;49.242;8.670;2024-02-15T02:37:51;9.60;99.90
47765;DHT22;33529;49.242;8.670;2024-02-15T02:40:19;9.60;99.90
47765;DHT22;33529;49.242;8.670;2024-02-15T02:42:56;9.70;99.90
47765;DHT22;33529;49.242;8.670;2024-02-15T02:45:26;9.70;99.90
47765;DHT22;33529;49.242;8.670;2024-02-15T02:47:53;9.70;99.90
47765;DHT22;33529;49.242;8.670;2024-02-15T02:50:21;9.70;99.90
47765;DHT22;33529;49.242;8.670;2024-02-15T02:52:49;9.80;99.90
47765;DHT22;33529;49.242;8.670;2024-02-15T02:55:17;9.80;99.90
47765;DHT22;33529;49.242;8.670;2024-02-15T02:57:44;9.80;99.90
47765;DHT22;33529;49.242;8.670;2024-02-15T03:00:13;9.80;99.90
47765;DHT22;33529;49.242;8.670;2024-02-15T03:02:43;9.90;99.90
47765;DHT22;33529;49.242;8.670;2024-02-15T03:05:10;9.80;99.90
47765;DHT22;33529;49.242;8.670;2024-02-15T03:07:41;9.80;99.90
47765;DHT22;33529;49.242;8.670;2024-02-15T03:10:09;9.80;99.90
47765;DHT22;33529;49.242;8.670;2024-02-15T03:12:37;9.80;99.90
47765;DHT22;33529;49.242;8.670;2024-02-15T03:15:05;9.80;99.90
47765;DHT22;33529;49.242;8.670;2024-02-15T03:17:42;9.80;99.90
47765;DHT22;33529;49.242;8.670;2024-02-15T03:20:10;9.80;99.90
47765;DHT22;33529;49.242;8.670;2024-02-15T03:22:38;9.80;99.90
47765;DHT22;33529;49.242;8.670;2024-02-15T03:25:06;9.80;99.90
47765;DHT22;33529;49.242;8.670;2024-02-15T03:27:36;9.80;99.90
47765;DHT22;33529;49.242;8.670;2024-02-15T03:30:04;9.90;99.90
47765;DHT22;33529;49.242;8.670;2024-02-15T03:32:31;9.80;99.90
47765;DHT22;33529;49.242;8.670;2024-02-15T03:34:58;9.90;99.90
47765;DHT22;33529;49.242;8.670;2024-02-15T03:37:28;9.90;99.90
47765;DHT22;33529;49.242;8.670;2024-02-15T03:39:55;9.90;99.90
47765;DHT22;33529;49.242;8.670;2024-02-15T03:42:22;9.80;99.90
47765;DHT22;33529;49.242;8.670;2024-02-15T03:44:49;9.80;99.90
47765;DHT22;33529;49.242;8.670;2024-02-15T03:47:17;9.80;99.90
47765;DHT22;33529;49.242;8.670;2024-02-15T03:49:43;9.90;99.90
47765;DHT22;33529;49.242;8.670;2024-02-15T03:52:10;9.90;99.90
47765;DHT22;33529;49.242;8.670;2024-02-15T03:54:37;9.80;99.90
47765;DHT22;33529;49.242;8.670;2024-02-15T03:57:04;9.90;99.90
47765;DHT22;33529;49.242;8.670;2024-02-15T03:59:33;9.90;99.90
47765;DHT22;33529;49.242;8.670;2024-02-15T04:02:01;9.90;99.90
47765;DHT22;33529;49.242;8.670;2024-02-15T04:04:30;9.90;99.90
47765;DHT22;33529;49.242;8.670;2024-02-15T04:06:57;9.90;99.90
47765;DHT22;33529;49.242;8.670;2024-02-15T04:09:25;9.90;99.90
47765;DHT22;33529;49.242;8.670;2024-02-15T04:11:52;9.90;99.90
47765;DHT22;33529;49.242;8.670;2024-02-15T04:14:20;9.90;99.90
47765;DHT22;33529;49.242;8.670;2024-02-15T04:16:47;9.90;99.90
47765;DHT22;33529;49.242;8.670;2024-02-15T04:19:14;9.90;99.90
47765;DHT22;33529;49.242;8.670;2024-02-15T04:21:41;9.90;99.90
47765;DHT22;33529;49.242;8.670;2024-02-15T04:24:10;9.90;99.90
47765;DHT22;33529;49.242;8.670;2024-02-15T04:26:38;9.90;99.90
47765;DHT22;33529;49.242;8.670;2024-02-15T04:29:05;9.90;99.90
47765;DHT22;33529;49.242;8.670;2024-02-15T04:31:35;10.00;99.90
47765;DHT22;33529;49.242;8.670;2024-02-15T04:34:05;10.00;99.90
47765;DHT22;33529;49.242;8.670;2024-02-15T04:36:33;10.00;99.90
47765;DHT22;33529;49.242;8.670;2024-02-15T04:39:01;10.00;99.90
47765;DHT22;33529;49.242;8.670;2024-02-15T04:41:30;10.10;99.90
47765;DHT22;33529;49.242;8.670;2024-02-15T04:43:56;10.10;99.90
47765;DHT22;33529;49.242;8.670;2024-02-15T04:46:23;10.10;99.90
47765;DHT22;33529;49.242;8.670;2024-02-15T04:48:51;10.00;99.90
47765;DHT22;33529;49.242;8.670;2024-02-15T04:51:18;10.00;99.90
47765;DHT22;33529;49.242;8.670;2024-02-15T04:53:46;10.10;99.90
47765;DHT22;33529;49.242;8.670;2024-02-15T04:56:14;10.10;99.90
47765;DHT22;33529;49.242;8.670;2024-02-15T04:58:43;10.00;99.90
47765;DHT22;33529;49.242;8.670;2024-02-15T05:01:16;10.00;99.90
47765;DHT22;33529;49.242;8.670;2024-02-15T05:03:44;10.00;99.90
47765;DHT22;33529;49.242;8.670;2024-02-15T05:06:11;10.00;99.90
47765;DHT22;33529;49.242;8.670;2024-02-15T05:08:39;10.00;99.90
47765;DHT22;33529;49.242;8.670;2024-02-15T05:11:10;10.10;99.90
47765;DHT22;33529;49.242;8.670;2024-02-15T05:13:44;10.00;99.90
47765;DHT22;33529;49.242;8.670;2024-02-15T05:16:14;10.00;99.90
47765;DHT22;33529;49.242;8.670;2024-02-15T05:18:40;10.00;99.90
47765;DHT22;33529;49.242;8.670;2024-02-15T05:21:08;10.00;99.90
47765;DHT22;33529;49.242;8.670;2024-02-15T05:23:40;10.00;99.90
47765;DHT22;33529;49.242;8.670;2024-02-15T05:26:09;10.00;99.90
47765;DHT22;33529;49.242;8.670;2024-02-15T05:28:35;10.00;99.90
47765;DHT22;33529;49.242;8.670;2024-02-15T05:31:17;10.10;99.90
47765;DHT22;33529;49.242;8.670;2024-02-15T05:33:44;10.10;99.90
47765;DHT22;33529;49.242;8.670;2024-02-15T05:36:12;10.00;99.90
47765;DHT22;33529;49.242;8.670;2024-02-15T05:38:40;10.10;99.90
47765;DHT22;33529;49.242;8.670;2024-02-15T05:41:15;10.10;99.90
47765;DHT22;33529;49.242;8.670;2024-02-15T05:43:42;10.00;99.90
47765;DHT22;33529;49.242;8.670;2024-02-15T05:46:09;10.00;99.90
47765;DHT22;33529;49.242;8.670;2024-02-15T05:48:37;10.00;99.90
47765;DHT22;33529;49.242;8.670;2024-02-15T05:51:05;10.10;99.90
47765;DHT22;33529;49.242;8.670;2024-02-15T05:53:33;10.00;99.90
47765;DHT22;33529;49.242;8.670;2024-02-15T05:56:07;10.00;99.90
47765;DHT22;33529;49.242;8.670;2024-02-15T05:58:35;10.00;99.90
47765;DHT22;33529;49.242;8.670;2024-02-15T06:01:03;10.00;99.90
47765;DHT22;33529;49.242;8.670;2024-02-15T06:03:34;10.00;99.90
47765;DHT22;33529;49.242;8.670;2024-02-15T06:06:05;10.10;99.90
47765;DHT22;33529;49.242;8.670;2024-02-15T06:08:36;10.00;99.90
47765;DHT22;33529;49.242;8.670;2024-02-15T06:11:04;10.00;99.90
47765;DHT22;33529;49.242;8.670;2024-02-15T06:13:32;10.00;99.90
47765;DHT22;33529;49.242;8.670;2024-02-15T06:16:00;10.00;99.90
47765;DHT22;33529;49.242;8.670;2024-02-15T06:18:29;10.00;99.90
47765;DHT22;33529;49.242;8.670;2024-02-15T06:21:00;10.00;99.90
47765;DHT22;33529;49.242;8.670;2024-02-15T06:23:27;10.10;99.90
47765;DHT22;33529;49.242;8.670;2024-02-15T06:25:56;10.10;99.90
47765;DHT22;33529;49.242;8.670;2024-02-15T06:28:24;10.00;99.90
47765;DHT22;33529;49.242;8.670;2024-02-15T06:31:11;10.00;99.90
47765;DHT22;33529;49.242;8.670;2024-02-15T06:33:56;10.10;99.90
47765;DHT22;33529;49.242;8.670;2024-02-15T06:36:47;10.10;99.90
47765;DHT22;33529;49.242;8.670;2024-02-15T06:39:32;10.10;99.90
47765;DHT22;33529;49.242;8.670;2024-02-15T06:42:10;10.10;99.90
47765;DHT22;33529;49.242;8.670;2024-02-15T06:44:38;10.10;99.90
47765;DHT22;33529;49.242;8.670;2024-02-15T06:47:07;10.10;99.90
47765;DHT22;33529;49.242;8.670;2024-02-15T06:49:33;10.10;99.90
47765;DHT22;33529;49.242;8.670;2024-02-15T06:52:01;10.10;99.90
47765;DHT22;33529;49.242;8.670;2024-02-15T06:54:29;10.10;99.90
47765;DHT22;33529;49.242;8.670;2024-02-15T06:56:56;10.20;99.90
47765;DHT22;33529;49.242;8.670;2024-02-15T06:59:23;10.20;99.90
47765;DHT22;33529;49.242;8.670;2024-02-15T07:01:50;10.30;99.90
47765;DHT22;33529;49.242;8.670;2024-02-15T07:04:19;10.30;99.90
47765;DHT22;33529;49.242;8.670;2024-02-15T07:06:47;10.30;99.90
47765;DHT22;33529;49.242;8.670;2024-02-15T07:09:16;10.30;99.90
47765;DHT22;33529;49.242;8.670;2024-02-15T07:11:46;10.30;99.90
47765;DHT22;33529;49.242;8.670;2024-02-15T07:14:18;10.40;99.90
47765;DHT22;33529;49.242;8.670;2024-02-15T07:16:46;10.40;99.90
47765;DHT22;33529;49.242;8.670;2024-02-15T07:19:14;10.40;99.90
47765;DHT22;33529;49.242;8.670;2024-02-15T07:21:42;10.50;99.90
47765;DHT22;33529;49.242;8.670;2024-02-15T07:24:10;10.40;99.90
47765;DHT22;33529;49.242;8.670;2024-02-15T07:26:37;10.40;99.90
47765;DHT22;33529;49.242;8.670;2024-02-15T07:29:04;10.40;99.90
47765;DHT22;33529;49.242;8.670;2024-02-15T07:31:32;10.50;99.90
47765;DHT22;33529;49.242;8.670;2024-02-15T07:34:00;10.60;99.90
47765;DHT22;33529;49.242;8.670;2024-02-15T07:36:27;10.60;99.90
47765;DHT22;33529;49.242;8.670;2024-02-15T07:38:54;10.60;99.90
47765;DHT22;33529;49.242;8.670;2024-02-15T07:41:24;10.60;99.90
47765;DHT22;33529;49.242;8.670;2024-02-15T07:43:52;10.60;99.90
47765;DHT22;33529;49.242;8.670;2024-02-15T07:46:22;10.70;99.90
47765;DHT22;33529;49.242;8.670;2024-02-15T07:48:50;10.70;99.90
47765;DHT22;33529;49.242;8.670;2024-02-15T07:51:20;10.70;99.90
47765;DHT22;33529;49.242;8.670;2024-02-15T07:53:48;10.80;99.90
47765;DHT22;33529;49.242;8.670;2024-02-15T07:56:16;10.80;99.90
47765;DHT22;33529;49.242;8.670;2024-02-15T07:58:45;10.80;99.90
47765;DHT22;33529;49.242;8.670;2024-02-15T08:01:19;10.80;99.90
47765;DHT22;33529;49.242;8.670;2024-02-15T08:03:51;10.80;99.90
47765;DHT22;33529;49.242;8.670;2024-02-15T08:06:21;10.80;99.90
47765;DHT22;33529;49.242;8.670;2024-02-15T08:08:50;10.90;99.90
47765;DHT22;33529;49.242;8.670;2024-02-15T08:11:19;10.90;99.90
47765;DHT22;33529;49.242;8.670;2024-02-15T08:13:47;10.90;99.90
47765;DHT22;33529;49.242;8.670;2024-02-15T08:16:17;11.00;99.90
47765;DHT22;33529;49.242;8.670;2024-02-15T08:18:45;11.00;99.90
47765;DHT22;33529;49.242;8.670;2024-02-15T08:21:13;11.00;99.90
47765;DHT22;33529;49.242;8.670;2024-02-15T08:23:41;11.10;99.90
47765;DHT22;33529;49.242;8.670;2024-02-15T08:26:08;11.20;99.90
47765;DHT22;33529;49.242;8.670;2024-02-15T08:28:38;11.20;99.90
47765;DHT22;33529;49.242;8.670;2024-02-15T08:31:05;11.20;99.90
47765;DHT22;33529;49.242;8.670;2024-02-15T08:33:32;11.10;99.90
47765;DHT22;33529;49.242;8.670;2024-02-15T08:35:59;11.10;99.90
47765;DHT22;33529;49.242;8.670;2024-02-15T08:38:30;11.00;99.90
47765;DHT22;33529;49.242;8.670;2024-02-15T08:40:58;11.10;99.90
47765;DHT22;33529;49.242;8.670;2024-02-15T08:43:26;11.10;99.90
47765;DHT22;33529;49.242;8.670;2024-02-15T08:45:53;11.10;99.90
47765;DHT22;33529;49.242;8.670;2024-02-15T08:48:20;11.20;99.90
47765;DHT22;33529;49.242;8.670;2024-02-15T08:50:49;11.30;99.90
47765;DHT22;33529;49.242;8.670;2024-02-15T08:53:16;11.40;99.90
47765;DHT22;33529;49.242;8.670;2024-02-15T08:55:46;11.40;99.90
47765;DHT22;33529;49.242;8.670;2024-02-15T08:58:12;11.50;99.90
47765;DHT22;33529;49.242;8.670;2024-02-15T09:00:39;11.50;99.90
47765;DHT22;33529;49.242;8.670;2024-02-15T09:03:11;11.40;99.90
47765;DHT22;33529;49.242;8.670;2024-02-15T09:05:39;11.50;99.90
47765;DHT22;33529;49.242;8.670;2024-02-15T09:08:09;11.60;99.90
47765;DHT22;33529;49.242;8.670;2024-02-15T09:10:36;11.70;99.90
47765;DHT22;33529;49.242;8.670;2024-02-15T09:13:06;11.80;99.90
47765;DHT22;33529;49.242;8.670;2024-02-15T09:15:33;11.90;99.90
47765;DHT22;33529;49.242;8.670;2024-02-15T09:18:00;12.00;99.90
47765;DHT22;33529;49.242;8.670;2024-02-15T09:20:27;12.10;99.90
47765;DHT22;33529;49.242;8.670;2024-02-15T09:22:58;12.00;99.90
47765;DHT22;33529;49.242;8.670;2024-02-15T09:25:38;12.20;99.90
47765;DHT22;33529;49.242;8.670;2024-02-15T09:28:05;12.40;99.90
47765;DHT22;33529;49.242;8.670;2024-02-15T09:30:32;12.50;99.90
47765;DHT22;33529;49.242;8.670;2024-02-15T09:33:00;12.70;99.90
47765;DHT22;33529;49.242;8.670;2024-02-15T09:35:27;12.90;99.90
47765;DHT22;33529;49.242;8.670;2024-02-15T09:37:54;12.90;99.90
47765;DHT22;33529;49.242;8.670;2024-02-15T09:40:23;13.00;99.90
47765;DHT22;33529;49.242;8.670;2024-02-15T09:42:55;13.20;99.90
47765;DHT22;33529;49.242;8.670;2024-02-15T09:45:22;13.20;99.90
47765;DHT22;33529;49.242;8.670;2024-02-15T09:47:51;13.30;99.90
47765;DHT22;33529;49.242;8.670;2024-02-15T09:50:20;13.50;99.90
47765;DHT22;33529;49.242;8.670;2024-02-15T09:52:52;13.50;99.90
47765;DHT22;33529;49.242;8.670;2024-02-15T09:55:21;13.60;99.90
47765;DHT22;33529;49.242;8.670;2024-02-15T09:57:50;13.70;99.90
47765;DHT22;33529;49.242;8.670;2024-02-15T10:00:18;13.80;99.90
47765;DHT22;33529;49.242;8.670;2024-02-15T10:02:50;13.80;99.90
47765;DHT22;33529;49.242;8.670;2024-02-15T10:05:17;13.80;99.90
47765;DHT22;33529;49.242;8.670;2024-02-15T10:07:45;13.80;99.90
47765;DHT22;33529;49.242;8.670;2024-02-15T10:12:43;14.10;99.90
47765;DHT22;33529;49.242;8.670;2024-02-15T10:15:10;14.20;99.90
47765;DHT22;33529;49.242;8.670;2024-02-15T10:18:00;14.30;99.90
47765;DHT22;33529;49.242;8.670;2024-02-15T10:20:27;14.40;99.90
47765;DHT22;33529;49.242;8.670;2024-02-15T10:25:27;14.50;99.90
47765;DHT22;33529;49.242;8.670;2024-02-15T10:28:08;14.50;99.90
47765;DHT22;33529;49.242;8.670;2024-02-15T10:30:36;14.60;99.90
47765;DHT22;33529;49.242;8.670;2024-02-15T10:33:04;14.80;99.90
47765;DHT22;33529;49.242;8.670;2024-02-15T10:35:31;14.80;99.90
47765;DHT22;33529;49.242;8.670;2024-02-15T10:38:09;15.00;99.90
47765;DHT22;33529;49.242;8.670;2024-02-15T10:40:38;15.10;99.90
47765;DHT22;33529;49.242;8.670;2024-02-15T10:43:07;15.10;99.90
47765;DHT22;33529;49.242;8.670;2024-02-15T10:45:35;15.20;99.90
47765;DHT22;33529;49.242;8.670;2024-02-15T10:48:08;15.20;99.90
47765;DHT22;33529;49.242;8.670;2024-02-15T10:50:39;15.40;99.90
47765;DHT22;33529;49.242;8.670;2024-02-15T10:53:30;15.50;99.90
47765;DHT22;33529;49.242;8.670;2024-02-15T10:56:10;15.50;99.90
47765;DHT22;33529;49.242;8.670;2024-02-15T10:58:49;15.40;99.90
47765;DHT22;33529;49.242;8.670;2024-02-15T11:01:21;15.50;99.90
47765;DHT22;33529;49.242;8.670;2024-02-15T11:04:07;15.60;99.90
47765;DHT22;33529;49.242;8.670;2024-02-15T11:06:38;15.70;99.90
47765;DHT22;33529;49.242;8.670;2024-02-15T11:09:09;15.70;99.90
47765;DHT22;33529;49.242;8.670;2024-02-15T11:11:39;15.70;99.90
47765;DHT22;33529;49.242;8.670;2024-02-15T11:14:30;15.70;99.90
47765;DHT22;33529;49.242;8.670;2024-02-15T11:17:00;15.80;99.90
47765;DHT22;33529;49.242;8.670;2024-02-15T11:21:59;15.70;99.90
47765;DHT22;33529;49.242;8.670;2024-02-15T11:24:31;15.70;99.90
47765;DHT22;33529;49.242;8.670;2024-02-15T11:26:59;15.60;99.90
47765;DHT22;33529;49.242;8.670;2024-02-15T11:29:48;15.50;99.90
47765;DHT22;33529;49.242;8.670;2024-02-15T11:35:19;15.50;99.90
47765;DHT22;33529;49.242;8.670;2024-02-15T11:43:45;15.30;99.90
47765;DHT22;33529;49.242;8.670;2024-02-15T11:46:16;15.30;99.90
47765;DHT22;33529;49.242;8.670;2024-02-15T11:48:50;15.40;99.90
47765;DHT22;33529;49.242;8.670;2024-02-15T11:51:36;15.40;99.90
47765;DHT22;33529;49.242;8.670;2024-02-15T11:54:11;15.40;99.90
47765;DHT22;33529;49.242;8.670;2024-02-15T11:56:48;15.50;99.90
47765;DHT22;33529;49.242;8.670;2024-02-15T11:59:18;15.50;99.90
47765;DHT22;33529;49.242;8.670;2024-02-15T12:01:56;15.60;99.90
47765;DHT22;33529;49.242;8.670;2024-02-15T12:04:45;15.60;99.90
47765;DHT22;33529;49.242;8.670;2024-02-15T12:07:33;15.70;99.90
47765;DHT22;33529;49.242;8.670;2024-02-15T12:10:19;15.60;99.90
47765;DHT22;33529;49.242;8.670;2024-02-15T12:13:05;15.80;99.90
47765;DHT22;33529;49.242;8.670;2024-02-15T12:16:00;15.80;99.90
47765;DHT22;33529;49.242;8.670;2024-02-15T12:18:46;15.90;99.90
47765;DHT22;33529;49.242;8.670;2024-02-15T12:21:19;16.00;99.90
47765;DHT22;33529;49.242;8.670;2024-02-15T12:23:48;16.10;99.90
47765;DHT22;33529;49.242;8.670;2024-02-15T12:26:20;16.20;99.90
47765;DHT22;33529;49.242;8.670;2024-02-15T12:28:51;16.20;99.90
47765;DHT22;33529;49.242;8.670;2024-02-15T12:31:22;16.30;99.90
47765;DHT22;33529;49.242;8.670;2024-02-15T12:34:05;16.20;99.90
47765;DHT22;33529;49.242;8.670;2024-02-15T12:36:35;16.30;99.90
47765;DHT22;33529;49.242;8.670;2024-02-15T12:39:06;16.30;99.90
47765;DHT22;33529;49.242;8.670;2024-02-15T12:41:48;16.40;99.90
47765;DHT22;33529;49.242;8.670;2024-02-15T12:44:17;16.30;99.90
47765;DHT22;33529;49.242;8.670;2024-02-15T12:46:47;16.40;99.90
47765;DHT22;33529;49.242;8.670;2024-02-15T12:49:29;16.40;99.90
47765;DHT22;33529;49.242;8.670;2024-02-15T12:52:32;16.40;99.90
47765;DHT22;33529;49.242;8.670;2024-02-15T12:55:22;16.30;99.90
47765;DHT22;33529;49.242;8.670;2024-02-15T12:57:52;16.30;99.90
47765;DHT22;33529;49.242;8.670;2024-02-15T13:00:23;16.30;99.90
47765;DHT22;33529;49.242;8.670;2024-02-15T13:02:57;16.40;99.90
47765;DHT22;33529;49.242;8.670;2024-02-15T13:05:27;16.30;99.90
47765;DHT22;33529;49.242;8.670;2024-02-15T13:07:54;16.50;99.90
47765;DHT22;33529;49.242;8.670;2024-02-15T13:10:22;16.40;99.90
47765;DHT22;33529;49.242;8.670;2024-02-15T13:12:54;16.40;99.90
47765;DHT22;33529;49.242;8.670;2024-02-15T13:15:22;16.50;99.90
47765;DHT22;33529;49.242;8.670;2024-02-15T13:17:54;16.50;99.90
47765;DHT22;33529;49.242;8.670;2024-02-15T13:20:23;16.50;99.90
47765;DHT22;33529;49.242;8.670;2024-02-15T13:23:04;16.50;99.90
47765;DHT22;33529;49.242;8.670;2024-02-15T13:25:51;16.50;99.90
47765;DHT22;33529;49.242;8.670;2024-02-15T13:28:23;16.50;99.90
47765;DHT22;33529;49.242;8.670;2024-02-15T13:30:51;16.40;99.90
47765;DHT22;33529;49.242;8.670;2024-02-15T13:33:21;16.60;99.90
47765;DHT22;33529;49.242;8.670;2024-02-15T13:35:49;16.70;99.90
47765;DHT22;33529;49.242;8.670;2024-02-15T13:38:18;16.80;99.90
47765;DHT22;33529;49.242;8.670;2024-02-15T13:40:51;16.90;99.90
47765;DHT22;33529;49.242;8.670;2024-02-15T13:43:21;16.90;99.90
47765;DHT22;33529;49.242;8.670;2024-02-15T13:45:48;16.90;99.90
47765;DHT22;33529;49.242;8.670;2024-02-15T13:48:16;16.80;99.90
47765;DHT22;33529;49.242;8.670;2024-02-15T13:50:43;16.80;99.90
47765;DHT22;33529;49.242;8.670;2024-02-15T13:53:12;16.70;99.90
47765;DHT22;33529;49.242;8.670;2024-02-15T13:55:40;16.70;99.90
47765;DHT22;33529;49.242;8.670;2024-02-15T13:58:08;16.70;99.90
47765;DHT22;33529;49.242;8.670;2024-02-15T14:00:40;16.70;99.90
47765;DHT22;33529;49.242;8.670;2024-02-15T14:03:10;16.70;99.90
47765;DHT22;33529;49.242;8.670;2024-02-15T14:05:38;16.80;99.90
47765;DHT22;33529;49.242;8.670;2024-02-15T14:08:07;16.80;99.90
47765;DHT22;33529;49.242;8.670;2024-02-15T14:10:38;16.80;99.90
47765;DHT22;33529;49.242;8.670;2024-02-15T14:13:05;16.80;99.90
47765;DHT22;33529;49.242;8.670;2024-02-15T14:15:33;16.90;99.90
47765;DHT22;33529;49.242;8.670;2024-02-15T14:18:09;16.90;99.90
47765;DHT22;33529;49.242;8.670;2024-02-15T14:20:46;16.90;99.90
47765;DHT22;33529;49.242;8.670;2024-02-15T14:23:17;16.90;99.90
47765;DHT22;33529;49.242;8.670;2024-02-15T14:25:44;16.90;99.90
47765;DHT22;33529;49.242;8.670;2024-02-15T14:28:12;16.90;99.90
47765;DHT22;33529;49.242;8.670;2024-02-15T14:30:40;16.80;99.90
47765;DHT22;33529;49.242;8.670;2024-02-15T14:33:25;16.80;99.90
47765;DHT22;33529;49.242;8.670;2024-02-15T14:36:00;16.70;99.90
47765;DHT22;33529;49.242;8.670;2024-02-15T14:38:28;16.60;99.90
47765;DHT22;33529;49.242;8.670;2024-02-15T14:40:55;16.50;99.90
47765;DHT22;33529;49.242;8.670;2024-02-15T14:43:25;16.60;99.90
47765;DHT22;33529;49.242;8.670;2024-02-15T14:45:54;16.60;99.90
47765;DHT22;33529;49.242;8.670;2024-02-15T14:48:24;16.60;99.90
47765;DHT22;33529;49.242;8.670;2024-02-15T14:50:52;16.70;99.90
47765;DHT22;33529;49.242;8.670;2024-02-15T14:53:20;16.70;99.90
47765;DHT22;33529;49.242;8.670;2024-02-15T14:55:47;16.60;99.90
47765;DHT22;33529;49.242;8.670;2024-02-15T14:58:17;16.50;99.90
47765;DHT22;33529;49.242;8.670;2024-02-15T15:00:45;16.50;99.90
47765;DHT22;33529;49.242;8.670;2024-02-15T15:03:15;16.40;99.90
47765;DHT22;33529;49.242;8.670;2024-02-15T15:05:43;16.40;99.90
47765;DHT22;33529;49.242;8.670;2024-02-15T15:08:29;16.30;99.90
47765;DHT22;33529;49.242;8.670;2024-02-15T15:11:15;16.30;99.90
47765;DHT22;33529;49.242;8.670;2024-02-15T15:14:01;16.20;99.90
47765;DHT22;33529;49.242;8.670;2024-02-15T15:16:31;16.20;99.90
47765;DHT22;33529;49.242;8.670;2024-02-15T15:18:58;16.10;99.90
47765;DHT22;33529;49.242;8.670;2024-02-15T15:21:25;16.10;99.90
47765;DHT22;33529;49.242;8.670;2024-02-15T15:23:55;16.20;99.90
47765;DHT22;33529;49.242;8.670;2024-02-15T15:26:22;16.20;99.90
47765;DHT22;33529;49.242;8.670;2024-02-15T15:28:49;16.10;99.90
47765;DHT22;33529;49.242;8.670;2024-02-15T15:31:17;16.00;99.90
47765;DHT22;33529;49.242;8.670;2024-02-15T15:33:47;15.90;99.90
47765;DHT22;33529;49.242;8.670;2024-02-15T15:36:16;15.80;99.90
47765;DHT22;33529;49.242;8.670;2024-02-15T15:38:44;15.80;99.90
47765;DHT22;33529;49.242;8.670;2024-02-15T15:41:12;15.70;99.90
47765;DHT22;33529;49.242;8.670;2024-02-15T15:43:40;15.80;99.90
47765;DHT22;33529;49.242;8.670;2024-02-15T15:46:13;15.70;99.90
47765;DHT22;33529;49.242;8.670;2024-02-15T15:48:40;15.60;99.90
47765;DHT22;33529;49.242;8.670;2024-02-15T15:51:07;15.60;99.90
47765;DHT22;33529;49.242;8.670;2024-02-15T15:53:36;15.40;99.90
47765;DHT22;33529;49.242;8.670;2024-02-15T15:56:06;15.40;99.90
47765;DHT22;33529;49.242;8.670;2024-02-15T15:58:33;15.40;99.90
47765;DHT22;33529;49.242;8.670;2024-02-15T16:01:00;15.30;99.90
47765;DHT22;33529;49.242;8.670;2024-02-15T16:03:28;15.20;99.90
47765;DHT22;33529;49.242;8.670;2024-02-15T16:05:55;15.10;99.90
47765;DHT22;33529;49.242;8.670;2024-02-15T16:08:22;15.10;99.90
47765;DHT22;33529;49.242;8.670;2024-02-15T16:10:49;15.00;99.90